Louis Armstrong New Orleans International Airport
KMSY : now visible

Airfield :











YOU CAN JOIN US ON...

 
LOGIN :

Register | Disclaimer

   EN    FR    IT 

 









Legend :    VFR   Marginal VFR   IFR   Intensive IFR   Very Intensive IFR
Visi :
Ceiling :
>= 8 km
>= 3000ft
5 to 8 km
1000 to 3000 ft
1500m to 5 km
500 to 1000 ft
800 to 1500m
200 to 500 ft
< 800m
< 200 ft
Symbols :   Thunderstorms  Fog  Heavy snow  Heavy precipitations  Wind > 20 kt






- Airport Elevation : 4 ft
- IATA code : MSY


KMSY - Louis Armstrong New Orleans International

CURRENT METAR :
  • 221153Z 07006KT 10SM FEW010 FEW027 24/22 A3001 RMK AO2 SLP165 T02390217 10244 20239 53008

EXPIRED METARs :
  • 221053Z 06006KT 10SM SCT010 24/22 A3001 RMK AO2 SLP163 T02390217
  • 220953Z 06005KT 10SM FEW045 24/22 A2999 RMK AO2 SLP158 T02390217

TAF KMSY
Valid from the 22 at 12:00 until the 23 at 18:00 UTC


221120Z 2212/2318 06006KT P6SM SCT010
FM222100 10011KT P6SM VCSH FEW035 SCT090
FM231000 08005KT P6SM SCT010
FM231200 07005KT P6SM BKN020
KZHU FIR / North America



MET'MAP, your aeronautical weather chart ! - Copyright ORBIFLY December 2007 - Disclaimer

ORBIFLY MET'MAP TEAM :

Programming & Development : Alexandra Zaïnal
Concept & original design : Baudouin d'Aumeries
Assistance for programming : Marc-Olivier Méhu
Technical & hardware support : Manuel Goepfert

Contact : metmap@orbifly.com




SOURCES & CREDITS :

   NOAA       Earth
Advisory